Time;durP1;ratioP1;P1;durP2;ratioP2;P2;SDS_P1;SDS_P2;PMS_P1;PMS_P2;Temp;Humidity;BMP_temperature;BMP_pressure;BME280_temperature;BME280_humidity;BME280_pressure;Samples;Min_cycle;Max_cycle;Signal;HPM_P1;HPM_P2
2023/01/29 00:02:18;;;;;;;6.37;5.87;;;16.00;52.70;16.60;102188.00;;;;5015267;28;20641;-48
2023/01/29 00:04:44;;;;;;;6.40;5.90;;;16.00;52.70;16.60;102188.00;;;;5015589;28;20171;-48
2023/01/29 00:07:10;;;;;;;6.67;6.07;;;15.90;52.60;16.50;102188.00;;;;5015850;28;20183;-48
2023/01/29 00:09:35;;;;;;;6.87;6.27;;;15.90;52.60;16.30;102191.00;;;;5015594;28;20195;-47
2023/01/29 00:12:01;;;;;;;6.47;5.97;;;15.90;52.60;16.50;102184.00;;;;5013738;28;20246;-48
2023/01/29 00:14:27;;;;;;;6.97;6.37;;;15.80;52.70;16.50;102179.00;;;;5015910;28;20171;-48
2023/01/29 00:16:53;;;;;;;6.60;6.10;;;15.80;52.70;16.40;102171.00;;;;5015998;28;20591;-48
2023/01/29 00:19:19;;;;;;;6.83;6.23;;;15.80;52.80;16.40;102168.00;;;;5015632;28;20231;-49
2023/01/29 00:21:45;;;;;;;6.70;6.17;;;15.80;52.80;16.40;102171.00;;;;5015127;28;20183;-48
2023/01/29 00:24:11;;;;;;;6.67;6.17;;;15.70;52.80;16.30;102174.00;;;;5015554;28;20206;-49
2023/01/29 00:26:38;;;;;;;6.60;6.10;;;15.70;52.80;16.30;102167.00;;;;5015848;28;20258;-48
2023/01/29 00:29:04;;;;;;;6.70;6.20;;;15.70;52.80;16.30;102161.00;;;;5016539;28;20180;-48
2023/01/29 00:31:30;;;;;;;6.80;6.23;;;15.70;52.80;16.30;102162.00;;;;5015363;28;20254;-48
2023/01/29 00:33:57;;;;;;;6.23;5.73;;;15.60;52.70;16.30;102156.00;;;;5014915;28;20290;-48
2023/01/29 00:36:24;;;;;;;6.30;5.80;;;15.60;52.80;16.20;102153.00;;;;5014458;28;20564;-48
2023/01/29 00:39:01;;;;;;;6.03;5.57;;;15.60;52.80;16.20;102152.00;;;;5013074;28;20207;-47
2023/01/29 00:46:56;;;;;;;6.80;6.20;;;15.60;52.70;16.10;102152.00;;;;5014344;28;20170;-48
2023/01/29 00:49:22;;;;;;;6.47;5.97;;;15.60;52.70;16.20;102156.00;;;;5014579;28;20565;-48
2023/01/29 00:52:22;;;;;;;6.40;5.90;;;15.50;52.60;16.10;102157.00;;;;5014357;28;20179;-48
2023/01/29 00:54:34;;;;;;;6.20;5.70;;;15.50;52.60;16.10;102146.00;;;;5013577;28;20194;-48
2023/01/29 00:57:01;;;;;;;6.43;5.93;;;15.50;52.60;16.10;102149.00;;;;5010316;28;20180;-48
2023/01/29 00:59:27;;;;;;;6.10;5.60;;;15.50;52.60;16.10;102146.00;;;;5010819;28;20886;-48
2023/01/29 01:04:37;;;;;;;6.17;5.67;;;15.40;52.40;16.10;102153.00;;;;5011264;28;20194;-49
2023/01/29 01:07:03;;;;;;;6.23;5.73;;;15.40;52.60;16.00;102137.00;;;;5011592;28;20195;-47
2023/01/29 01:12:12;;;;;;;6.33;5.83;;;15.40;52.60;16.00;102158.00;;;;5010542;28;20237;-48
2023/01/29 01:14:42;;;;;;;6.27;5.77;;;15.30;52.50;15.90;102149.00;;;;5010768;28;20231;-48
2023/01/29 01:17:08;;;;;;;6.23;5.73;;;15.30;52.50;16.00;102148.00;;;;5011169;28;20179;-48
2023/01/29 01:19:34;;;;;;;6.07;5.60;;;15.30;52.60;16.00;102139.00;;;;5010301;28;20291;-48
2023/01/29 01:22:00;;;;;;;6.17;5.67;;;15.20;52.50;16.00;102146.00;;;;5010387;28;20255;-47
2023/01/29 01:24:25;;;;;;;6.67;6.07;;;15.30;52.60;15.90;102148.00;;;;5010636;28;20230;-47
2023/01/29 01:26:51;;;;;;;6.47;5.97;;;15.20;52.50;15.90;102152.00;;;;5010677;28;20259;-47
2023/01/29 01:29:17;;;;;;;6.17;5.67;;;15.20;52.50;15.90;102153.00;;;;5010544;28;20175;-48
2023/01/29 01:31:42;;;;;;;6.00;5.60;;;15.20;52.60;15.90;102169.00;;;;5010611;28;20172;-48
2023/01/29 01:34:08;;;;;;;6.20;5.70;;;15.20;52.60;15.90;102162.00;;;;5010557;28;20180;-47
2023/01/29 01:36:34;;;;;;;6.13;5.70;;;15.10;52.50;15.90;102156.00;;;;5010733;28;20224;-47
2023/01/29 01:39:00;;;;;;;6.23;5.73;;;15.10;52.50;15.90;102154.00;;;;5010139;28;20655;-47
2023/01/29 01:41:25;;;;;;;6.03;5.63;;;15.10;52.50;15.80;102151.00;;;;5009977;28;20215;-48
2023/01/29 01:43:59;;;;;;;6.23;5.73;;;15.10;52.50;15.80;102156.00;;;;5010450;28;20199;-48
2023/01/29 01:46:33;;;;;;;5.80;5.30;;;15.10;52.50;15.80;102151.00;;;;5010295;28;20176;-49
2023/01/29 01:49:09;;;;;;;6.27;5.77;;;15.10;52.50;15.80;102145.00;;;;5011183;28;20309;-49
2023/01/29 01:51:39;;;;;;;6.10;5.60;;;15.10;52.50;15.70;102066.00;;;;5005601;28;20171;-47
2023/01/29 01:54:08;;;;;;;6.00;5.50;;;15.10;52.50;15.70;102130.00;;;;5014472;28;20528;-47
2023/01/29 01:56:39;;;;;;;6.27;5.77;;;15.00;52.40;15.70;102115.00;;;;5009142;28;20172;-47
2023/01/29 01:59:12;;;;;;;5.83;5.33;;;15.00;52.50;15.70;102120.00;;;;5008976;28;20258;-48
2023/01/29 02:01:41;;;;;;;6.30;5.80;;;15.00;52.50;15.60;102112.00;;;;4993102;28;20557;-48
2023/01/29 02:09:53;;;;;;;6.03;5.57;;;14.90;52.50;15.60;102119.00;;;;5013696;28;20221;-48
2023/01/29 02:12:20;;;;;;;6.43;5.93;;;14.90;52.50;15.60;102117.00;;;;5008586;28;20733;-48
2023/01/29 02:14:46;;;;;;;6.33;5.83;;;14.90;52.50;15.50;102126.00;;;;4992176;28;20746;-47
2023/01/29 02:17:14;;;;;;;6.10;5.60;;;14.80;52.50;15.50;102129.00;;;;4992135;28;20215;-48
2023/01/29 02:20:10;;;;;;;5.80;5.40;;;14.80;52.50;15.50;102134.00;;;;5009412;28;20234;-48
2023/01/29 02:22:54;;;;;;;6.20;5.70;;;14.80;52.50;15.50;102122.00;;;;5009398;28;20595;-48
2023/01/29 02:25:33;;;;;;;6.40;5.90;;;14.80;52.50;15.40;102134.00;;;;5010027;28;20152;-48
2023/01/29 02:28:35;;;;;;;6.23;5.73;;;14.80;52.50;15.40;102141.00;;;;4993025;28;20764;-48
2023/01/29 02:31:25;;;;;;;6.40;5.90;;;14.80;52.50;15.40;102132.00;;;;4999630;28;20238;-48
2023/01/29 02:34:18;;;;;;;6.10;5.60;;;14.70;52.40;15.30;102137.00;;;;5009512;28;20168;-48
2023/01/29 02:36:57;;;;;;;6.27;5.77;;;14.70;52.40;15.30;102143.00;;;;5009562;28;20179;-49
2023/01/29 02:39:35;;;;;;;5.70;5.30;;;14.70;52.40;15.30;102142.00;;;;4992422;28;20199;-50
2023/01/29 02:42:26;;;;;;;6.20;5.70;;;14.70;52.40;15.30;102071.00;;;;4992523;28;20247;-48
2023/01/29 02:45:04;;;;;;;6.13;5.63;;;14.60;52.30;15.20;102152.00;;;;4991928;28;20689;-48
2023/01/29 02:47:57;;;;;;;5.70;5.30;;;14.60;52.30;15.20;102150.00;;;;4992398;28;20608;-53
2023/01/29 02:51:03;;;;;;;6.13;5.63;;;14.50;52.30;15.20;102163.00;;;;5008330;28;20337;-48
2023/01/29 02:53:41;;;;;;;5.97;5.47;;;14.50;52.30;15.20;102164.00;;;;5000535;28;20202;-48
2023/01/29 02:56:17;;;;;;;6.00;5.60;;;14.50;52.30;15.20;102164.00;;;;5008275;28;20168;-48
2023/01/29 02:58:46;;;;;;;6.47;5.97;;;14.50;52.30;15.10;102179.00;;;;4991995;28;20618;-48
2023/01/29 03:01:20;;;;;;;6.57;6.07;;;14.50;52.40;15.10;102174.00;;;;4991651;28;20196;-50
2023/01/29 03:03:50;;;;;;;5.97;5.47;;;14.40;52.40;15.10;102178.00;;;;5007362;28;20174;-50
2023/01/29 03:06:38;;;;;;;6.43;5.93;;;14.40;52.40;15.10;102164.00;;;;4991527;28;20312;-49
2023/01/29 03:09:08;;;;;;;6.50;6.00;;;14.40;52.40;15.10;102167.00;;;;5008342;28;20163;-48
2023/01/29 03:11:45;;;;;;;5.90;5.47;;;14.40;52.40;15.10;102161.00;;;;4991575;28;20221;-48
2023/01/29 03:14:24;;;;;;;6.47;5.97;;;14.40;52.50;15.00;102156.00;;;;4991977;28;20175;-48
2023/01/29 03:16:51;;;;;;;6.50;6.00;;;14.30;52.30;15.00;102151.00;;;;4992445;28;20190;-47
2023/01/29 03:19:35;;;;;;;6.20;5.70;;;14.30;52.40;15.00;102144.00;;;;5006916;28;20227;-47
2023/01/29 03:22:03;;;;;;;6.40;5.90;;;14.30;52.50;15.00;102146.00;;;;4992614;28;20184;-48
2023/01/29 03:33:20;;;;;;;6.17;5.63;;;14.20;52.40;14.90;102136.00;;;;4993882;28;20186;-48
2023/01/29 03:35:52;;;;;;;5.80;5.40;;;14.20;52.40;14.80;102142.00;;;;4990685;28;20199;-47
2023/01/29 03:38:18;;;;;;;6.00;5.50;;;14.20;52.40;14.80;102143.00;;;;5007221;28;20239;-48
2023/01/29 03:40:52;;;;;;;6.37;5.87;;;14.10;52.30;14.80;102152.00;;;;5008028;28;20215;-48
2023/01/29 03:44:03;;;;;;;6.30;5.80;;;14.10;52.30;14.80;102154.00;;;;5007167;28;20231;-48
2023/01/29 03:46:48;;;;;;;6.40;5.90;;;14.10;52.30;14.80;102146.00;;;;4975028;28;20552;-47
2023/01/29 03:49:46;;;;;;;6.40;5.90;;;14.10;52.40;14.70;102154.00;;;;5007325;28;20172;-47
2023/01/29 03:52:41;;;;;;;6.60;6.10;;;14.10;52.30;14.70;102167.00;;;;5006972;28;20192;-49
2023/01/29 03:55:40;;;;;;;6.00;5.50;;;14.00;52.30;14.70;102160.00;;;;5007498;28;20206;-48
2023/01/29 03:58:32;;;;;;;6.30;5.80;;;14.00;52.30;14.70;102158.00;;;;4991687;28;20167;-48
2023/01/29 04:01:09;;;;;;;6.13;5.63;;;14.00;52.30;14.60;102138.00;;;;4991269;28;20397;-49
2023/01/29 04:03:48;;;;;;;6.03;5.53;;;14.00;52.40;14.60;102147.00;;;;4991909;28;20164;-48
2023/01/29 04:06:22;;;;;;;6.10;5.60;;;13.90;52.30;14.60;102154.00;;;;4991724;28;20178;-48
2023/01/29 04:09:05;;;;;;;6.43;5.93;;;13.90;52.30;14.60;102143.00;;;;4991261;28;20155;-48
2023/01/29 04:11:30;;;;;;;5.97;5.47;;;13.90;52.30;14.60;102136.00;;;;4991115;28;20187;-47
2023/01/29 04:13:56;;;;;;;6.40;5.90;;;13.90;52.30;14.60;102134.00;;;;4990818;28;20534;-48
2023/01/29 04:16:27;;;;;;;5.87;5.47;;;13.90;52.30;14.50;102137.00;;;;4990496;28;20164;-49
2023/01/29 04:18:53;;;;;;;6.27;5.77;;;13.90;52.30;14.50;102127.00;;;;4998122;28;20187;-48
2023/01/29 04:21:19;;;;;;;6.27;5.77;;;13.80;52.30;14.50;102135.00;;;;5026183;28;20198;-48
2023/01/29 04:23:45;;;;;;;6.20;5.70;;;13.90;52.30;14.50;102131.00;;;;5026385;28;20186;-47
2023/01/29 04:26:20;;;;;;;6.10;5.60;;;13.80;52.30;14.50;102127.00;;;;5027541;28;20181;-48
2023/01/29 04:29:20;;;;;;;5.70;5.30;;;13.80;52.30;14.50;102120.00;;;;5026511;28;20597;-49
2023/01/29 04:32:28;;;;;;;6.53;6.03;;;13.80;52.40;14.50;102107.00;;;;5031916;28;20238;-48
2023/01/29 04:35:23;;;;;;;6.23;5.70;;;13.70;52.30;14.40;102109.00;;;;5034213;28;20686;-48
2023/01/29 04:38:07;;;;;;;6.67;6.00;;;13.70;52.60;14.40;102109.00;;;;5009149;28;20218;-48
2023/01/29 04:40:38;;;;;;;10.23;5.93;;;13.70;52.50;14.30;102105.00;;;;5010620;28;20222;-48
2023/01/29 04:43:12;;;;;;;6.20;5.60;;;13.70;52.60;14.30;102115.00;;;;5010325;28;20576;-48
2023/01/29 04:46:08;;;;;;;6.53;5.80;;;13.70;52.50;14.30;102118.00;;;;4994646;28;20243;-48
2023/01/29 04:49:00;;;;;;;6.30;5.70;;;13.70;52.50;14.30;102108.00;;;;5009332;28;20274;-48
2023/01/29 04:51:45;;;;;;;6.30;5.70;;;13.70;52.60;14.30;102107.00;;;;4994592;28;20219;-48
2023/01/29 04:54:23;;;;;;;8.73;6.20;;;13.60;52.80;14.30;102099.00;;;;4994627;28;20172;-48
2023/01/29 04:57:25;;;;;;;8.03;5.93;;;13.60;52.90;14.30;102103.00;;;;5011461;28;20183;-49
2023/01/29 05:00:12;;;;;;;6.87;5.80;;;13.60;52.90;14.20;102089.00;;;;4994534;28;20203;-48
2023/01/29 05:02:40;;;;;;;8.70;6.17;;;13.60;52.90;14.20;102082.00;;;;4996053;28;20153;-48
2023/01/29 05:05:07;;;;;;;7.33;6.23;;;13.60;52.90;14.20;102085.00;;;;4977242;28;20477;-48
2023/01/29 05:07:34;;;;;;;6.13;5.63;;;13.50;52.80;14.20;102089.00;;;;4993304;28;20167;-48
2023/01/29 05:10:00;;;;;;;6.70;6.00;;;13.50;52.90;14.10;102082.00;;;;4993466;28;20248;-49
2023/01/29 05:12:27;;;;;;;6.60;6.10;;;13.50;52.80;14.10;102080.00;;;;5011010;28;20171;-47
2023/01/29 05:14:53;;;;;;;6.70;6.07;;;13.50;52.90;14.10;102093.00;;;;4977362;28;20267;-48
2023/01/29 05:17:19;;;;;;;6.07;5.57;;;13.40;52.80;14.10;102088.00;;;;4992753;28;20250;-47
2023/01/29 05:19:45;;;;;;;6.67;6.07;;;13.50;52.80;14.10;102068.00;;;;4992520;28;20724;-47
2023/01/29 05:22:11;;;;;;;9.80;6.60;;;13.50;52.80;14.10;102074.00;;;;5009503;28;20213;-47
2023/01/29 05:24:37;;;;;;;8.40;7.27;;;13.40;52.70;14.10;102084.00;;;;4993732;28;20206;-47
2023/01/29 05:29:48;;;;;;;8.57;7.77;;;13.40;52.50;14.00;102069.00;;;;5010292;28;20238;-48
2023/01/29 05:32:14;;;;;;;11.37;8.70;;;13.40;52.40;14.00;102066.00;;;;5010592;28;20176;-48
2023/01/29 05:34:40;;;;;;;16.03;8.90;;;13.40;52.30;14.00;102064.00;;;;5013642;28;20178;-47
2023/01/29 05:37:05;;;;;;;19.57;9.70;;;13.30;52.80;14.00;102062.00;;;;5013171;28;20171;-47
2023/01/29 05:39:31;;;;;;;15.57;9.67;;;13.30;52.10;13.90;102057.00;;;;5011223;28;20252;-49
2023/01/29 05:41:57;;;;;;;19.00;10.47;;;13.20;51.90;13.90;102065.00;;;;5009847;28;20179;-47
2023/01/29 05:44:23;;;;;;;15.43;11.07;;;13.30;51.90;13.90;102074.00;;;;5018326;28;20232;-47
2023/01/29 05:46:49;;;;;;;17.87;10.60;;;13.20;51.80;13.90;102068.00;;;;5034806;28;20175;-47
2023/01/29 05:49:16;;;;;;;14.40;10.70;;;13.20;51.70;13.90;102074.00;;;;5034507;28;20175;-48
2023/01/29 05:51:42;;;;;;;14.87;11.50;;;13.20;52.30;13.90;102071.00;;;;5017954;28;20664;-47
2023/01/29 05:54:13;;;;;;;14.83;10.80;;;13.20;51.60;13.80;102076.00;;;;5013038;28;20180;-47
2023/01/29 05:56:39;;;;;;;14.43;10.47;;;13.20;51.60;13.80;102072.00;;;;5011988;28;20176;-47
2023/01/29 05:59:06;;;;;;;16.40;10.97;;;13.20;51.40;13.80;102067.00;;;;5010595;28;20238;-47
2023/01/29 06:01:32;;;;;;;14.87;10.80;;;13.10;51.50;13.80;102068.00;;;;5021533;28;20744;-48
2023/01/29 06:03:57;;;;;;;13.03;11.17;;;13.10;51.40;13.80;102074.00;;;;5010958;28;20262;-48
2023/01/29 06:06:23;;;;;;;13.20;10.80;;;13.10;51.30;13.70;102075.00;;;;5011550;28;20175;-48
2023/01/29 06:08:49;;;;;;;12.87;11.37;;;13.00;51.70;13.70;102076.00;;;;5010229;28;20576;-47
2023/01/29 06:11:17;;;;;;;13.03;11.53;;;13.00;51.10;13.70;102086.00;;;;5009593;28;20684;-47
2023/01/29 06:13:43;;;;;;;15.20;11.97;;;13.00;51.00;13.70;102102.00;;;;5011009;28;20180;-49
2023/01/29 06:16:11;;;;;;;14.83;11.57;;;13.00;51.00;13.70;102092.00;;;;5011166;28;20187;-47
2023/01/29 06:18:36;;;;;;;13.47;11.43;;;13.00;51.00;13.60;102094.00;;;;5034709;28;20209;-47
2023/01/29 06:21:07;;;;;;;13.07;11.40;;;13.00;51.00;13.60;102094.00;;;;5038125;28;20209;-48
2023/01/29 06:23:32;;;;;;;14.60;10.83;;;13.00;51.00;13.60;102093.00;;;;5038501;28;20245;-48
2023/01/29 06:26:06;;;;;;;12.43;10.90;;;12.90;50.90;13.60;102099.00;;;;5033763;28;20222;-47
2023/01/29 06:28:32;;;;;;;12.33;10.27;;;12.90;50.90;13.60;102104.00;;;;5031189;28;20167;-47
2023/01/29 06:30:59;;;;;;;10.53;9.43;;;13.00;51.20;13.60;102113.00;;;;5030093;28;20561;-48
2023/01/29 06:33:25;;;;;;;11.33;9.60;;;13.00;51.40;13.60;102118.00;;;;5029885;28;20175;-47
2023/01/29 06:35:57;;;;;;;14.60;9.00;;;13.00;51.50;13.60;102122.00;;;;5028790;28;20686;-48
2023/01/29 06:38:23;;;;;;;10.07;9.07;;;13.00;51.50;13.70;102110.00;;;;5029562;28;20175;-48
2023/01/29 06:40:49;;;;;;;9.43;8.50;;;13.10;51.60;13.70;102114.00;;;;5030064;28;20211;-48
2023/01/29 06:43:15;;;;;;;10.43;8.30;;;13.20;51.70;13.80;102127.00;;;;5030162;28;20178;-47
2023/01/29 06:45:53;;;;;;;9.70;8.70;;;13.20;51.70;13.80;102137.00;;;;5029797;28;20171;-47
2023/01/29 06:48:18;;;;;;;9.20;8.30;;;13.30;51.90;13.90;102131.00;;;;5030135;28;20163;-48
2023/01/29 06:50:44;;;;;;;9.77;7.80;;;13.40;51.90;14.00;102051.00;;;;5030354;28;20278;-48
2023/01/29 06:53:10;;;;;;;8.80;7.93;;;13.50;51.90;14.10;102133.00;;;;5029352;28;20203;-49
2023/01/29 06:55:36;;;;;;;8.97;7.57;;;13.60;51.90;14.10;102131.00;;;;5029895;28;20179;-49
2023/01/29 06:58:10;;;;;;;8.67;7.40;;;13.70;51.90;14.20;102128.00;;;;5029750;28;20186;-48
2023/01/29 07:00:36;;;;;;;8.70;7.10;;;13.80;51.90;14.30;102133.00;;;;5029508;28;20254;-47
2023/01/29 07:03:02;;;;;;;8.03;7.33;;;13.90;51.90;14.40;102115.00;;;;5029501;28;20203;-49
2023/01/29 07:05:28;;;;;;;7.90;7.13;;;14.00;51.90;14.50;102116.00;;;;5029900;28;20233;-48
2023/01/29 07:07:54;;;;;;;7.63;6.93;;;14.10;51.90;14.60;102114.00;;;;5029669;28;20167;-48
2023/01/29 07:10:20;;;;;;;7.80;7.10;;;14.20;52.00;14.70;102116.00;;;;5029860;28;20226;-48
2023/01/29 07:12:45;;;;;;;7.90;7.20;;;14.20;52.00;14.80;102113.00;;;;5030450;28;20174;-48
2023/01/29 07:15:11;;;;;;;7.43;6.73;;;14.30;52.10;14.90;102126.00;;;;5040645;28;20183;-47
2023/01/29 07:17:38;;;;;;;7.67;6.80;;;14.40;52.10;14.90;102117.00;;;;5037977;28;20179;-48
2023/01/29 07:20:05;;;;;;;7.00;6.40;;;14.40;52.00;15.00;102109.00;;;;5028190;28;20671;-48
2023/01/29 07:22:31;;;;;;;7.40;6.73;;;14.50;52.00;15.10;102106.00;;;;5029232;28;20163;-48
2023/01/29 07:24:57;;;;;;;7.43;6.57;;;14.50;52.00;15.10;102114.00;;;;5029477;28;20171;-47
2023/01/29 07:27:23;;;;;;;6.90;6.30;;;14.60;52.10;15.20;102117.00;;;;5028961;28;20176;-47
2023/01/29 07:29:48;;;;;;;7.20;6.50;;;14.60;52.10;15.20;102109.00;;;;5029342;28;20282;-48
2023/01/29 07:32:14;;;;;;;6.70;6.10;;;14.70;52.20;15.20;102108.00;;;;5029382;28;20171;-47
2023/01/29 07:34:40;;;;;;;6.73;6.13;;;14.70;52.20;15.30;102112.00;;;;5029716;28;20181;-48
2023/01/29 07:37:05;;;;;;;6.60;6.10;;;14.80;52.20;15.30;102109.00;;;;5029743;28;20178;-48
2023/01/29 07:39:31;;;;;;;6.80;6.20;;;14.80;52.20;15.40;102119.00;;;;5028954;28;20222;-49
2023/01/29 07:41:57;;;;;;;6.60;5.97;;;14.80;52.30;15.40;102113.00;;;;5028725;28;20206;-48
2023/01/29 07:44:23;;;;;;;6.43;5.90;;;14.80;52.20;15.40;102128.00;;;;5028750;28;20271;-48
2023/01/29 07:46:48;;;;;;;6.47;5.90;;;14.80;52.20;15.50;102126.00;;;;5029362;28;20659;-48
2023/01/29 07:49:15;;;;;;;6.47;5.87;;;14.90;52.30;15.50;102104.00;;;;5029172;28;20270;-48
2023/01/29 07:51:40;;;;;;;6.20;5.70;;;14.90;52.90;15.50;102104.00;;;;5028847;28;20205;-48
2023/01/29 07:54:06;;;;;;;6.47;5.90;;;14.90;52.30;15.50;102101.00;;;;5029091;28;20182;-48
2023/01/29 07:56:32;;;;;;;6.63;6.13;;;14.90;52.40;15.50;102102.00;;;;5027887;28;20187;-48
2023/01/29 07:58:58;;;;;;;6.40;5.80;;;15.00;52.40;15.50;102090.00;;;;5027283;28;20210;-48
2023/01/29 08:01:23;;;;;;;6.33;5.80;;;15.00;52.40;15.60;102103.00;;;;5028869;28;20190;-48
2023/01/29 08:03:49;;;;;;;6.23;5.73;;;15.00;52.40;15.60;102099.00;;;;5030664;28;20167;-47
2023/01/29 08:06:15;;;;;;;6.47;5.87;;;15.10;52.50;15.60;102105.00;;;;5034323;28;20171;-48
2023/01/29 08:08:41;;;;;;;6.00;5.50;;;15.00;52.40;15.60;102103.00;;;;5031919;28;20171;-48
2023/01/29 08:11:06;;;;;;;6.30;5.80;;;15.00;52.40;15.70;102099.00;;;;5031473;28;20261;-51
2023/01/29 08:13:32;;;;;;;5.87;5.37;;;15.10;52.50;15.70;102100.00;;;;5032119;28;20789;-48
2023/01/29 08:16:00;;;;;;;5.90;5.40;;;15.00;52.40;15.70;102099.00;;;;5032910;28;20171;-47
2023/01/29 08:18:25;;;;;;;6.07;5.57;;;15.10;52.50;15.70;102110.00;;;;5032068;28;20641;-48
2023/01/29 08:20:51;;;;;;;6.10;5.57;;;15.10;52.50;15.70;102115.00;;;;5032662;28;20217;-49
2023/01/29 08:23:17;;;;;;;5.60;5.20;;;15.10;52.50;15.70;102103.00;;;;5032169;28;20187;-48
2023/01/29 08:25:42;;;;;;;5.90;5.40;;;15.20;52.60;15.80;102113.00;;;;5032541;28;20175;-48
2023/01/29 08:28:08;;;;;;;6.17;5.60;;;15.20;52.50;15.80;102108.00;;;;5032379;28;20206;-48
2023/01/29 08:30:34;;;;;;;5.73;5.23;;;15.20;52.60;15.80;102107.00;;;;5032305;28;20233;-48
2023/01/29 08:33:00;;;;;;;5.93;5.43;;;15.20;52.70;15.80;102105.00;;;;5031950;28;20399;-47
2023/01/29 08:35:26;;;;;;;5.50;5.10;;;15.20;52.80;15.80;102111.00;;;;5032684;28;20821;-49
2023/01/29 08:37:58;;;;;;;5.80;5.30;;;15.30;52.90;15.80;102116.00;;;;5032420;28;20182;-48
2023/01/29 08:40:23;;;;;;;5.93;5.40;;;15.20;52.80;15.90;102099.00;;;;5032367;28;20302;-48
2023/01/29 08:42:49;;;;;;;6.00;5.40;;;15.30;52.90;15.90;102097.00;;;;5032311;28;20306;-48
2023/01/29 08:45:15;;;;;;;5.83;5.10;;;15.30;53.00;15.90;102095.00;;;;5034850;28;20251;-48
2023/01/29 08:47:47;;;;;;;7.03;5.30;;;15.30;53.30;15.90;102098.00;;;;5034213;28;20171;-47
2023/01/29 08:50:14;;;;;;;9.33;5.37;;;15.30;53.30;15.90;102097.00;;;;5038732;28;20199;-49
2023/01/29 08:52:40;;;;;;;5.90;5.20;;;15.30;53.60;15.90;102099.00;;;;5058604;28;20173;-47
2023/01/29 08:55:06;;;;;;;5.97;5.47;;;15.30;53.50;15.90;102106.00;;;;5057312;28;20183;-48
2023/01/29 08:57:32;;;;;;;5.70;5.20;;;15.30;53.50;15.90;102112.00;;;;5040989;28;20183;-48
2023/01/29 08:59:58;;;;;;;7.33;5.70;;;15.30;53.60;16.00;102091.00;;;;5032564;28;20564;-47
2023/01/29 09:02:23;;;;;;;5.97;5.33;;;15.40;53.70;16.00;102108.00;;;;5031428;28;20621;-47
2023/01/29 09:04:49;;;;;;;7.50;5.37;;;15.40;53.70;16.00;102102.00;;;;5032944;28;20310;-47
2023/01/29 09:07:15;;;;;;;7.23;5.20;;;15.50;53.60;16.10;102107.00;;;;5031961;28;20258;-47
2023/01/29 09:09:41;;;;;;;5.80;5.30;;;15.50;53.50;16.10;102100.00;;;;5032624;28;20285;-47
2023/01/29 09:12:07;;;;;;;5.40;4.97;;;15.60;53.40;16.20;102086.00;;;;5031495;28;20206;-47
2023/01/29 09:14:32;;;;;;;5.50;5.00;;;15.70;53.40;16.30;102067.00;;;;5033610;28;20202;-47
2023/01/29 09:16:58;;;;;;;5.27;4.87;;;15.80;53.30;16.40;102070.00;;;;5032348;28;20250;-47
2023/01/29 09:19:24;;;;;;;6.40;5.13;;;15.90;53.30;16.40;102065.00;;;;5030798;28;21145;-47
2023/01/29 09:21:49;;;;;;;5.50;5.00;;;15.90;53.20;16.50;102066.00;;;;5031240;28;20186;-47
2023/01/29 09:24:15;;;;;;;9.13;5.00;;;16.00;53.20;16.60;102070.00;;;;5030640;28;20171;-48
2023/01/29 09:26:41;;;;;;;11.37;5.53;;;16.10;53.50;16.60;102063.00;;;;5031872;28;20183;-48
2023/01/29 09:29:09;;;;;;;9.50;4.57;;;16.10;53.50;16.70;102065.00;;;;5031465;28;20629;-47
2023/01/29 09:31:34;;;;;;;5.77;4.40;;;16.10;53.50;16.80;102062.00;;;;5033368;28;20808;-47
2023/01/29 09:34:00;;;;;;;9.70;5.23;;;16.20;53.50;16.80;102063.00;;;;5029712;28;20179;-47
2023/01/29 09:36:26;;;;;;;7.20;5.20;;;16.20;53.40;16.80;102059.00;;;;5031625;28;20164;-47
2023/01/29 09:38:52;;;;;;;7.73;5.07;;;16.30;53.40;16.90;102057.00;;;;5031177;28;20183;-49
2023/01/29 09:41:30;;;;;;;10.07;5.13;;;16.30;53.40;16.90;102061.00;;;;5031308;28;20558;-48
2023/01/29 09:44:08;;;;;;;12.80;5.40;;;16.40;53.50;17.00;102060.00;;;;5029700;28;20194;-49
2023/01/29 09:46:41;;;;;;;7.63;4.80;;;16.40;53.40;17.00;102050.00;;;;5030627;28;20172;-48
2023/01/29 09:49:10;;;;;;;8.47;4.97;;;16.40;53.50;17.00;102062.00;;;;5030221;28;20928;-49
2023/01/29 09:51:40;;;;;;;9.33;5.40;;;16.40;53.30;17.00;102040.00;;;;5030643;28;20210;-49
2023/01/29 09:54:20;;;;;;;8.53;5.10;;;16.40;53.30;17.00;102037.00;;;;5030394;28;20221;-50
2023/01/29 09:56:46;;;;;;;9.57;4.83;;;16.40;53.20;17.00;102037.00;;;;5031374;28;20178;-49
2023/01/29 09:59:13;;;;;;;9.13;5.20;;;16.40;53.10;17.00;102044.00;;;;5034679;28;20195;-49
2023/01/29 10:02:05;;;;;;;5.83;4.90;;;16.40;53.70;17.10;102036.00;;;;5031798;28;20175;-47
2023/01/29 10:04:58;;;;;;;7.40;4.67;;;16.50;53.20;17.10;102040.00;;;;5031051;28;20182;-48
2023/01/29 10:08:01;;;;;;;7.57;4.40;;;16.50;53.20;17.10;102044.00;;;;5040917;28;20166;-48
2023/01/29 10:11:06;;;;;;;6.33;5.00;;;16.50;53.20;17.10;102044.00;;;;5036842;28;20554;-49
2023/01/29 10:13:45;;;;;;;6.00;4.80;;;16.50;53.10;17.10;102045.00;;;;5039349;28;20286;-49
2023/01/29 10:17:04;;;;;;;5.80;5.07;;;16.50;53.00;17.10;102037.00;;;;5042148;28;20195;-48
2023/01/29 10:19:38;;;;;;;5.37;4.87;;;16.50;53.00;17.10;102042.00;;;;5040890;28;20718;-48
2023/01/29 10:22:32;;;;;;;6.90;4.60;;;16.50;53.00;17.10;102047.00;;;;5038546;28;20634;-47
2023/01/29 10:25:21;;;;;;;6.53;4.60;;;16.50;52.90;17.10;102033.00;;;;5040470;28;20192;-48
2023/01/29 10:27:52;;;;;;;5.00;4.60;;;16.50;52.90;17.10;101997.00;;;;5038282;28;20243;-47
2023/01/29 10:30:38;;;;;;;4.97;4.47;;;16.50;52.80;17.10;102024.00;;;;5021984;28;20221;-48
2023/01/29 10:33:05;;;;;;;4.77;4.37;;;16.50;52.90;17.10;102049.00;;;;5037770;28;20209;-49
2023/01/29 10:35:48;;;;;;;4.73;4.23;;;16.60;53.00;17.20;102039.00;;;;5024299;28;20182;-47
2023/01/29 10:38:45;;;;;;;6.07;4.67;;;16.60;53.00;17.20;102007.00;;;;5026391;28;20210;-48
2023/01/29 10:41:38;;;;;;;4.77;4.37;;;16.60;53.00;17.20;102037.00;;;;5036514;28;20226;-48
2023/01/29 10:44:23;;;;;;;4.67;4.27;;;16.60;52.90;17.20;102042.00;;;;5039838;28;20182;-48
2023/01/29 10:47:17;;;;;;;4.47;4.03;;;16.60;52.80;17.30;102028.00;;;;5040458;28;20185;-47
2023/01/29 10:50:11;;;;;;;4.63;4.13;;;16.60;52.80;17.30;102024.00;;;;5038623;28;20199;-47
2023/01/29 10:53:24;;;;;;;4.63;4.23;;;16.60;52.80;17.30;102008.00;;;;5038563;28;20185;-47
2023/01/29 10:56:39;;;;;;;4.33;3.93;;;16.60;52.80;17.30;102005.00;;;;5038136;28;20194;-47
2023/01/29 10:59:37;;;;;;;6.50;4.40;;;16.70;53.00;17.30;102003.00;;;;5036768;28;20201;-48
2023/01/29 11:02:16;;;;;;;4.30;3.93;;;16.70;53.00;17.30;101994.00;;;;5030414;28;20266;-46
2023/01/29 11:04:42;;;;;;;4.73;4.23;;;16.70;53.00;17.30;101992.00;;;;5038112;28;20280;-46
2023/01/29 11:07:08;;;;;;;5.10;4.13;;;16.70;52.90;17.30;101965.00;;;;5039041;28;20647;-47
2023/01/29 11:09:38;;;;;;;4.40;4.10;;;16.70;52.90;17.30;101971.00;;;;5036299;28;20191;-47
2023/01/29 11:12:23;;;;;;;4.73;4.30;;;16.70;52.90;17.40;101960.00;;;;5035054;28;20258;-47
2023/01/29 11:15:01;;;;;;;4.70;4.20;;;16.70;52.90;17.30;101967.00;;;;5007108;28;20182;-47
2023/01/29 11:17:26;;;;;;;7.17;4.50;;;16.70;53.00;17.30;101960.00;;;;5037549;28;20275;-51
2023/01/29 11:19:56;;;;;;;8.03;4.07;;;16.70;53.20;17.30;101960.00;;;;5036413;28;20896;-47
2023/01/29 11:22:23;;;;;;;5.90;4.07;;;16.60;53.00;17.30;101964.00;;;;5037737;28;20177;-48
2023/01/29 11:25:15;;;;;;;5.47;4.00;;;16.70;53.10;17.30;101958.00;;;;5037480;28;20549;-48
2023/01/29 11:27:55;;;;;;;5.23;3.83;;;16.60;53.20;17.30;101959.00;;;;5039158;28;20706;-49
2023/01/29 11:30:38;;;;;;;8.10;4.07;;;16.60;53.40;17.30;101952.00;;;;5052243;28;20207;-48
2023/01/29 11:33:17;;;;;;;7.57;4.40;;;16.60;53.20;17.30;101948.00;;;;5037051;28;20555;-47
2023/01/29 11:35:42;;;;;;;8.27;3.83;;;16.60;53.40;17.30;101949.00;;;;5037998;28;20191;-46
2023/01/29 11:38:14;;;;;;;5.33;3.70;;;16.60;53.50;17.30;101947.00;;;;5038676;28;20179;-50